Partiellement nuageux
Ciel couvert
Ciel couvert
Ciel couvert
Ciel couvert
Ciel couvert
Ciel couvert
(°C)
16°
16°
16°
16°
15°
15°
15°
15°
15°
15°
16°
16°
16°
16°
(°C)
16°
15°
15°
15°
15°
16°
16°
SSE
SSE
SSE
SSE
SSE
SSE
SSE
(km/h)
2-7
2-7
2-7
2-7
2-7
2-8
2-8
(mm)
0
0
0
0
0
0
0
(%)
0
0
0
0
0
0
0

Élévation du soleil

/ -38.9°
sun-icon
UV 7
06:12
19:23
Gibbeuse croissante (131°)
15:47
04:15

METAR pour San Diego (KSAN)

Heure Conditions Température/
Point de rosée
Vent Visibilité Météo Nuages Pression Changement Brut
MVFR 16.1°C / 10.6°C variable 0kt >10km - Overcast 2200ft 1015 - KSAN 190851Z 00000KT 10SM OVC022 16/11 A2999 RMK AO2 SLP154 T01610106 58008 $
MVFR 16.1°C / 11.1°C variable 0kt >10km - Overcast 1900ft 1016 - KSAN 190751Z 00000KT 10SM OVC019 16/11 A3001 RMK AO2 SLP160 T01610111 402220144 $
MVFR 16.1°C / 11.1°C 160º 4kt >10km - Overcast 1900ft 1016 - KSAN 190651Z 16004KT 10SM OVC019 16/11 A3000 RMK AO2 SLP160 T01610111 $
MVFR 16.1°C / 11.7°C 3kt >10km - Overcast 1700ft 1016 - KSAN 190551Z VRB03KT 10SM OVC017 16/12 A3001 RMK AO2 SLP162 T01610117 10183 20161 50006 $
MVFR 16.1°C / 11.1°C 240º 4kt >10km - Overcast 1700ft 1016 - KSAN 190451Z 24004KT 10SM OVC017 16/11 A3002 RMK AO2 SLP164 T01610111 $
MVFR 16.1°C / 11.7°C 250º 5kt >10km - Overcast 1700ft 1016 - KSAN 190351Z 25005KT 10SM OVC017 16/12 A3001 RMK AO2 SLP160 T01610117 $
MVFR 16.1°C / 11.7°C 240º 3kt >10km - Broken Clouds 1600ft 1015 - KSAN 190251Z 24003KT 10SM BKN016 16/12 A2999 RMK AO2 SLP155 T01610117 55001 $
MVFR 16.7°C / 11.7°C 240º 7kt >10km - Broken Clouds 1800ft
Broken Clouds 25000ft
1015 - KSAN 190151Z 24007KT 10SM BKN018 BKN250 17/12 A2999 RMK AO2 SLP155 T01670117 $
VFR 17.2°C / 11.7°C 5kt >10km - Scattered Clouds 1800ft
Scattered Clouds 25000ft
1015 - KSAN 190051Z VRB05KT 10SM SCT018 SCT250 17/12 A2999 RMK AO2 SLP156 T01720117 $
VFR 17.8°C / 11.7°C 200º 6kt >10km - Few Clouds 2000ft
Scattered Clouds 25000ft
1015 - KSAN 182351Z 20006KT 10SM FEW020 SCT250 18/12 A2999 RMK AO2 SLP155 T01780117 10222 20178 58007 $
VFR 18.3°C / 12.2°C 230º 8kt Gust 16kt >10km - Scattered Clouds 2000ft
Scattered Clouds 25000ft
1015 - KSAN 182251Z 23008G16KT 10SM SCT020 SCT250 18/12 A3000 RMK AO2 SLP158 T01830122 $
VFR 18.9°C / 11.7°C 210º 7kt >10km - Few Clouds 2000ft
Scattered Clouds 25000ft
1016 - KSAN 182151Z 21007KT 10SM FEW020 SCT250 19/12 A3001 RMK AO2 SLP160 T01890117 $
VFR 18.9°C / 11.7°C 220º 7kt Gust 14kt >10km - Broken Clouds 25000ft 1016 - KSAN 182051Z 22007G14KT 10SM BKN250 19/12 A3001 RMK AO2 SLP162 T01890117 50008 $
VFR 18.9°C / 12.2°C 240º 10kt Gust 20kt >10km - Few Clouds 2500ft
Broken Clouds 25000ft
1016 - KSAN 181951Z 24010G20KT 10SM FEW025 BKN250 19/12 A3002 RMK AO2 PK WND 25031/1935 SLP165 T01890122 $
VFR 21.7°C / 10.6°C 220º 9kt >10km - Clear 1015 - KSAN 181851Z 22009KT 10SM CLR 22/11 A3000 RMK AO2 SLP157 T02170106 $
VFR 21.7°C / 10.6°C 4kt >10km - Broken Clouds 22000ft 1015 - KSAN 181751Z VRB04KT 10SM BKN220 22/11 A2999 RMK AO2 SLP154 T02170106 10217 20150 58015 $
VFR 18.9°C / 11.7°C 90º 6kt >10km - Few Clouds 1600ft
Broken Clouds 22000ft
1016 - KSAN 181651Z 09006KT 10SM FEW016 BKN220 19/12 A3001 RMK AO2 SLP160 T01890117 $
VFR 16.7°C / 11.7°C 100º 4kt >10km - Scattered Clouds 1600ft
Broken Clouds 20000ft
1016 - KSAN 181551Z 10004KT 10SM SCT016 BKN200 17/12 A3003 RMK AO2 SLP168 T01670117 $
VFR 16.1°C / 11.1°C 70º 5kt >10km - Scattered Clouds 1700ft
Broken Clouds 20000ft
- KSAN 181528Z 07005KT 10SM SCT017 BKN200 16/11 A3002 RMK AO2 T01610111 $
MVFR 15°C / 11.1°C 290º 6kt >10km - Broken Clouds 1800ft 1016 - KSAN 181451Z 29006KT 10SM BKN018 15/11 A3003 RMK AO2 SLP169 T01500111 53019 /
MVFR 15°C / 11.7°C 280º 7kt >10km - Overcast 1600ft - KSAN 181442Z 28007KT 10SM OVC016 15/12 A3003 RMK AO2 T01500117 $
MVFR 15°C / 11.7°C 270º 9kt >10km - Overcast 1200ft 1015 - KSAN 181351Z 27009KT 10SM OVC012 15/12 A3000 RMK AO2 SLP159 T01500117 $
MVFR 15.6°C / 12.2°C 260º 5kt >10km - Overcast 1100ft 1015 - KSAN 181251Z 26005KT 9SM OVC011 16/12 A2997 RMK AO2 SLP150 T01560122 $
MVFR 15.6°C / 12.2°C 80º 3kt >10km - Overcast 1100ft 1014 - KSAN 181151Z 08003KT 9SM OVC011 16/12 A2997 RMK AO2 SLP149 T01560122 10156 20144 56008 $

MVFR

16.1°C / 10.6°C

[Plus]
Vent variable 0kt
Visibilité >10km
Météo -
Nuages Overcast 2200ft
Pression 1015
Changement -
Brut KSAN 190851Z 00000KT 10SM OVC022 16/11 A2999 RMK AO2 SLP154 T01610106 58008 $

MVFR

16.1°C / 11.1°C

[Plus]
Vent variable 0kt
Visibilité >10km
Météo -
Nuages Overcast 1900ft
Pression 1016
Changement -
Brut KSAN 190751Z 00000KT 10SM OVC019 16/11 A3001 RMK AO2 SLP160 T01610111 402220144 $

MVFR

16.1°C / 11.1°C

[Plus]
Vent 160º 4kt
Visibilité >10km
Météo -
Nuages Overcast 1900ft
Pression 1016
Changement -
Brut KSAN 190651Z 16004KT 10SM OVC019 16/11 A3000 RMK AO2 SLP160 T01610111 $

MVFR

16.1°C / 11.7°C

[Plus]
Vent 3kt
Visibilité >10km
Météo -
Nuages Overcast 1700ft
Pression 1016
Changement -
Brut KSAN 190551Z VRB03KT 10SM OVC017 16/12 A3001 RMK AO2 SLP162 T01610117 10183 20161 50006 $

MVFR

16.1°C / 11.1°C

[Plus]
Vent 240º 4kt
Visibilité >10km
Météo -
Nuages Overcast 1700ft
Pression 1016
Changement -
Brut KSAN 190451Z 24004KT 10SM OVC017 16/11 A3002 RMK AO2 SLP164 T01610111 $

MVFR

16.1°C / 11.7°C

[Plus]
Vent 250º 5kt
Visibilité >10km
Météo -
Nuages Overcast 1700ft
Pression 1016
Changement -
Brut KSAN 190351Z 25005KT 10SM OVC017 16/12 A3001 RMK AO2 SLP160 T01610117 $

MVFR

16.1°C / 11.7°C

[Plus]
Vent 240º 3kt
Visibilité >10km
Météo -
Nuages Broken Clouds 1600ft
Pression 1015
Changement -
Brut KSAN 190251Z 24003KT 10SM BKN016 16/12 A2999 RMK AO2 SLP155 T01610117 55001 $

MVFR

16.7°C / 11.7°C

[Plus]
Vent 240º 7kt
Visibilité >10km
Météo -
Nuages Broken Clouds 1800ft
Broken Clouds 25000ft
Pression 1015
Changement -
Brut KSAN 190151Z 24007KT 10SM BKN018 BKN250 17/12 A2999 RMK AO2 SLP155 T01670117 $

VFR

17.2°C / 11.7°C

[Plus]
Vent 5kt
Visibilité >10km
Météo -
Nuages Scattered Clouds 1800ft
Scattered Clouds 25000ft
Pression 1015
Changement -
Brut KSAN 190051Z VRB05KT 10SM SCT018 SCT250 17/12 A2999 RMK AO2 SLP156 T01720117 $

VFR

17.8°C / 11.7°C

[Plus]
Vent 200º 6kt
Visibilité >10km
Météo -
Nuages Few Clouds 2000ft
Scattered Clouds 25000ft
Pression 1015
Changement -
Brut KSAN 182351Z 20006KT 10SM FEW020 SCT250 18/12 A2999 RMK AO2 SLP155 T01780117 10222 20178 58007 $

VFR

18.3°C / 12.2°C

[Plus]
Vent 230º 8kt Gust 16kt
Visibilité >10km
Météo -
Nuages Scattered Clouds 2000ft
Scattered Clouds 25000ft
Pression 1015
Changement -
Brut KSAN 182251Z 23008G16KT 10SM SCT020 SCT250 18/12 A3000 RMK AO2 SLP158 T01830122 $

VFR

18.9°C / 11.7°C

[Plus]
Vent 210º 7kt
Visibilité >10km
Météo -
Nuages Few Clouds 2000ft
Scattered Clouds 25000ft
Pression 1016
Changement -
Brut KSAN 182151Z 21007KT 10SM FEW020 SCT250 19/12 A3001 RMK AO2 SLP160 T01890117 $

VFR

18.9°C / 11.7°C

[Plus]
Vent 220º 7kt Gust 14kt
Visibilité >10km
Météo -
Nuages Broken Clouds 25000ft
Pression 1016
Changement -
Brut KSAN 182051Z 22007G14KT 10SM BKN250 19/12 A3001 RMK AO2 SLP162 T01890117 50008 $

VFR

18.9°C / 12.2°C

[Plus]
Vent 240º 10kt Gust 20kt
Visibilité >10km
Météo -
Nuages Few Clouds 2500ft
Broken Clouds 25000ft
Pression 1016
Changement -
Brut KSAN 181951Z 24010G20KT 10SM FEW025 BKN250 19/12 A3002 RMK AO2 PK WND 25031/1935 SLP165 T01890122 $

VFR

21.7°C / 10.6°C

[Plus]
Vent 220º 9kt
Visibilité >10km
Météo -
Nuages Clear
Pression 1015
Changement -
Brut KSAN 181851Z 22009KT 10SM CLR 22/11 A3000 RMK AO2 SLP157 T02170106 $

VFR

21.7°C / 10.6°C

[Plus]
Vent 4kt
Visibilité >10km
Météo -
Nuages Broken Clouds 22000ft
Pression 1015
Changement -
Brut KSAN 181751Z VRB04KT 10SM BKN220 22/11 A2999 RMK AO2 SLP154 T02170106 10217 20150 58015 $

VFR

18.9°C / 11.7°C

[Plus]
Vent 90º 6kt
Visibilité >10km
Météo -
Nuages Few Clouds 1600ft
Broken Clouds 22000ft
Pression 1016
Changement -
Brut KSAN 181651Z 09006KT 10SM FEW016 BKN220 19/12 A3001 RMK AO2 SLP160 T01890117 $

VFR

16.7°C / 11.7°C

[Plus]
Vent 100º 4kt
Visibilité >10km
Météo -
Nuages Scattered Clouds 1600ft
Broken Clouds 20000ft
Pression 1016
Changement -
Brut KSAN 181551Z 10004KT 10SM SCT016 BKN200 17/12 A3003 RMK AO2 SLP168 T01670117 $

VFR

16.1°C / 11.1°C

[Plus]
Vent 70º 5kt
Visibilité >10km
Météo -
Nuages Scattered Clouds 1700ft
Broken Clouds 20000ft
Pression
Changement -
Brut KSAN 181528Z 07005KT 10SM SCT017 BKN200 16/11 A3002 RMK AO2 T01610111 $

MVFR

15°C / 11.1°C

[Plus]
Vent 290º 6kt
Visibilité >10km
Météo -
Nuages Broken Clouds 1800ft
Pression 1016
Changement -
Brut KSAN 181451Z 29006KT 10SM BKN018 15/11 A3003 RMK AO2 SLP169 T01500111 53019 /

MVFR

15°C / 11.7°C

[Plus]
Vent 280º 7kt
Visibilité >10km
Météo -
Nuages Overcast 1600ft
Pression
Changement -
Brut KSAN 181442Z 28007KT 10SM OVC016 15/12 A3003 RMK AO2 T01500117 $

MVFR

15°C / 11.7°C

[Plus]
Vent 270º 9kt
Visibilité >10km
Météo -
Nuages Overcast 1200ft
Pression 1015
Changement -
Brut KSAN 181351Z 27009KT 10SM OVC012 15/12 A3000 RMK AO2 SLP159 T01500117 $

MVFR

15.6°C / 12.2°C

[Plus]
Vent 260º 5kt
Visibilité >10km
Météo -
Nuages Overcast 1100ft
Pression 1015
Changement -
Brut KSAN 181251Z 26005KT 9SM OVC011 16/12 A2997 RMK AO2 SLP150 T01560122 $

MVFR

15.6°C / 12.2°C

[Plus]
Vent 80º 3kt
Visibilité >10km
Météo -
Nuages Overcast 1100ft
Pression 1014
Changement -
Brut KSAN 181151Z 08003KT 9SM OVC011 16/12 A2997 RMK AO2 SLP149 T01560122 10156 20144 56008 $

TAF pour San Diego (KSAN)

From till


From till Wind 3kt. Visibility 9700m. Overcast 2200ft.
From till Wind 220º 6kt. Visibility 9700m. Scattered Clouds 2500ft.
From till Wind 260º 11kt. Visibility 9700m. Scattered Clouds 2000ft.
From till Wind 280º 5kt. Visibility 9700m. Broken Clouds 1700ft.

Brut: KSAN 190857Z 1909/2012 VRB03KT P6SM OVC022 FM191800 22006KT P6SM SCT025 FM192000 26011KT P6SM SCT020 FM200200 28005KT P6SM BKN017

rainNOW: Prévision immédiate des précipitations pour San Diego et ses environs (rayon de 25km)

0.0 mm
0.0 mm
0.0 mm
0.0 mm
0.0 mm
0.0 mm
0.0 mm
0.0 mm
0.0 mm
0.0 mm
0.0 mm
0.0 mm

Radar et prévision de précipitation à court terme pour San Diego

Bruine
Légère
Modéré
Fort
Très fort
Grêle

Le marqueur est placé sur San Diego. Cette animation montre le radar des précipitations pour la plage horaire sélectionnée, ainsi qu'une 1h prévision. Les croix orange indiquent la foudre. Données fournies par nowcast.de (disponibles aux États-Unis, en Europe et en Australie). Une bruine ou une légère chute de neige peut être invisible pour le radar. L'intensité des précipitations est codée par couleur, allant du turquoise au rouge.

Les images satellites pour San Diego, États Unis

Le marqueur est placé sur San Diego. [Plus]

L'image satellite en temps réel combine la lumière visible pendant la journée et le rayonnement infrarouge pendant la nuit. La nuit, l'image n'est pas sombre car le rayonnement infrarouge permet de détecter les différences de température. Malheureusement, les nuages bas et le brouillard sont difficiles à distinguer des températures au sol et peuvent donc être presque invisibles pendant la nuit. Les images des satellites Météosat pour l'Europe sont mises à jour en temps réel toutes les 5 minutes. Les images GOES-16/GOES-17 (Amérique du Nord et du Sud) et Himawari (Asie) sont mises à jour toutes les 10 minutes.

Les précipitations sont estimées à partir de radars et de satellites. Les estimations des précipitations par satellite sont moins précises la nuit que le jour.

© 2024 meteoblue, NOAA Satellites GOES-16 and EUMETSAT. Données de foudre fournies par nowcast.

Retour vers le haut
×
Salut,
Il semble que vous utilisiez un logiciel antipub.

La publicité est essentielle pour maintenir notre site web gratuit avec des détails et précision uniques.

Veuillez mettre www.meteoblue.com sur la liste blanche de votre bloqueur de publicité ou envisager d'acheter l'un de nos produits :

Vous avez déjà un abonnement ?
Dans ce cas, veuillez vous connecter.